Time,TemperatureF,DewpointF,PressureIn,WindDirection,WindDirectionDegrees,WindSpeedMPH,WindSpeedGustMPH,Humidity,HourlyPrecipIn,Conditions,Clouds,dailyrainin,SoftwareType,DateUTC
2013-03-21 00:16:00,18.7,17.0,29.89,NW,309,0.0,-999.0,91,-99.99,,,0.01,weatherlink.com 1.10,2013-03-21 04:16:00,
2013-03-21 00:31:00,19.9,18.0,29.89,NW,309,0.0,-999.0,92,-99.99,,,0.01,weatherlink.com 1.10,2013-03-21 04:31:00,
2013-03-21 01:01:00,24.3,22.0,29.89,NW,318,3.0,-999.0,92,-99.99,,,0.01,weatherlink.com 1.10,2013-03-21 05:01:00,
2013-03-21 01:16:00,25.9,24.0,29.89,NNW,327,1.0,-999.0,91,-99.99,,,0.01,weatherlink.com 1.10,2013-03-21 05:16:00,
2013-03-21 01:31:00,26.4,23.0,29.89,NNW,344,3.0,-999.0,88,-99.99,,,0.01,weatherlink.com 1.10,2013-03-21 05:31:00,
2013-03-21 01:46:00,25.7,22.0,29.89,NNW,328,2.0,-999.0,87,-99.99,,,0.01,weatherlink.com 1.10,2013-03-21 05:46:00,
2013-03-21 02:16:00,25.3,22.0,29.88,WNW,294,3.0,-999.0,86,-99.99,,,0.01,weatherlink.com 1.10,2013-03-21 06:16:00,
2013-03-21 02:31:00,24.0,20.0,29.89,NW,316,2.0,-999.0,86,-99.99,,,0.01,weatherlink.com 1.10,2013-03-21 06:31:00,
2013-03-21 02:46:00,24.4,21.0,29.90,NNW,334,2.0,-999.0,86,-99.99,,,0.01,weatherlink.com 1.10,2013-03-21 06:46:00,
2013-03-21 03:01:00,24.2,20.0,29.90,NW,314,5.0,-999.0,85,-99.99,,,0.01,weatherlink.com 1.10,2013-03-21 07:01:00,
2013-03-21 03:16:00,24.1,20.0,29.90,NW,321,3.0,-999.0,85,-99.99,,,0.01,weatherlink.com 1.10,2013-03-21 07:16:00,
2013-03-21 03:31:00,23.6,20.0,29.90,NW,309,1.0,-999.0,84,-99.99,,,0.01,weatherlink.com 1.10,2013-03-21 07:31:00,
2013-03-21 03:46:00,23.8,20.0,29.90,NW,324,2.0,-999.0,85,-99.99,,,0.01,weatherlink.com 1.10,2013-03-21 07:46:00,
2013-03-21 04:01:00,22.7,19.0,29.90,NW,324,1.0,-999.0,84,-99.99,,,0.01,weatherlink.com 1.10,2013-03-21 08:01:00,
2013-03-21 04:16:00,22.4,19.0,29.90,NNW,330,1.0,-999.0,85,-99.99,,,0.01,weatherlink.com 1.10,2013-03-21 08:16:00,
2013-03-21 04:31:00,21.4,17.0,29.90,North,355,1.0,-999.0,84,-99.99,,,0.01,weatherlink.com 1.10,2013-03-21 08:31:00,
2013-03-21 04:46:00,21.4,18.0,29.91,North,355,1.0,-999.0,85,-99.99,,,0.01,weatherlink.com 1.10,2013-03-21 08:46:00,
2013-03-21 05:16:00,19.8,16.0,29.90,North,355,1.0,-999.0,85,-99.99,,,0.01,weatherlink.com 1.10,2013-03-21 09:16:00,
2013-03-21 05:31:00,20.2,17.0,29.90,North,355,0.0,-999.0,86,-99.99,,,0.01,weatherlink.com 1.10,2013-03-21 09:31:00,
2013-03-21 05:46:00,19.0,15.0,29.91,North,355,0.0,-999.0,85,-99.99,,,0.01,weatherlink.com 1.10,2013-03-21 09:46:00,
2013-03-21 06:01:00,18.0,15.0,29.92,North,355,0.0,-999.0,86,-99.99,,,0.01,weatherlink.com 1.10,2013-03-21 10:01:00,
2013-03-21 06:16:00,18.8,16.0,29.92,North,355,2.0,-999.0,87,-99.99,,,0.01,weatherlink.com 1.10,2013-03-21 10:16:00,
2013-03-21 06:31:00,20.9,17.0,29.92,NW,315,4.0,-999.0,86,-99.99,,,0.01,weatherlink.com 1.10,2013-03-21 10:31:00,
2013-03-21 07:01:00,19.3,15.0,29.93,NNW,329,2.0,-999.0,84,-99.99,,,0.01,weatherlink.com 1.10,2013-03-21 11:01:00,
2013-03-21 07:16:00,18.7,15.0,29.94,NNW,327,1.0,-999.0,85,-99.99,,,0.01,weatherlink.com 1.10,2013-03-21 11:16:00,
2013-03-21 07:31:00,19.4,16.0,29.94,NNW,327,1.0,-999.0,85,-99.99,,,0.01,weatherlink.com 1.10,2013-03-21 11:31:00,
2013-03-21 07:46:00,19.9,16.0,29.93,NW,322,2.0,-999.0,85,-99.99,,,0.01,weatherlink.com 1.10,2013-03-21 11:46:00,
2013-03-21 08:01:00,20.6,17.0,29.93,North,355,4.0,-999.0,84,-99.99,,,0.01,weatherlink.com 1.10,2013-03-21 12:01:00,
2013-03-21 08:16:00,20.8,16.0,29.94,North,355,4.0,-999.0,83,-99.99,,,0.01,weatherlink.com 1.10,2013-03-21 12:16:00,
2013-03-21 08:31:00,21.1,16.0,29.94,North,360,4.0,-999.0,82,-99.99,,,0.01,weatherlink.com 1.10,2013-03-21 12:31:00,
2013-03-21 08:46:00,21.6,16.0,29.95,NNW,332,5.0,-999.0,80,-99.99,,,0.01,weatherlink.com 1.10,2013-03-21 12:46:00,
2013-03-21 09:02:00,21.6,16.0,29.95,NNW,345,5.0,-999.0,80,-99.99,,,0.01,weatherlink.com 1.10,2013-03-21 13:02:00,
2013-03-21 09:16:00,21.5,16.0,29.95,NNW,333,4.0,-999.0,79,-99.99,,,0.00,weatherlink.com 1.10,2013-03-21 13:16:00,
2013-03-21 09:31:00,21.8,16.0,29.95,North,360,10.0,-999.0,78,-99.99,,,0.00,weatherlink.com 1.10,2013-03-21 13:31:00,
2013-03-21 09:47:00,21.9,16.0,29.95,North,11,4.0,-999.0,77,-99.99,,,0.00,weatherlink.com 1.10,2013-03-21 13:47:00,
2013-03-21 10:02:00,22.8,16.0,29.95,NNE,28,9.0,-999.0,75,-99.99,,,0.00,weatherlink.com 1.10,2013-03-21 14:02:00,
2013-03-21 10:17:00,22.2,15.0,29.95,North,360,6.0,-999.0,75,-99.99,,,0.00,weatherlink.com 1.10,2013-03-21 14:17:00,
2013-03-21 10:32:00,23.0,16.0,29.95,NNE,23,6.0,-999.0,74,-99.99,,,0.00,weatherlink.com 1.10,2013-03-21 14:32:00,
2013-03-21 10:47:00,23.9,16.0,29.95,NNW,329,6.0,-999.0,72,-99.99,,,0.00,weatherlink.com 1.10,2013-03-21 14:47:00,
2013-03-21 11:04:00,23.1,16.0,29.95,NW,320,5.0,-999.0,73,-99.99,,,0.00,weatherlink.com 1.10,2013-03-21 15:04:00,
2013-03-21 11:17:00,23.7,16.0,29.95,NW,324,5.0,-999.0,73,-99.99,,,0.00,weatherlink.com 1.10,2013-03-21 15:17:00,
2013-03-21 11:32:00,24.3,16.0,29.96,NNE,19,6.0,-999.0,70,-99.99,,,0.00,weatherlink.com 1.10,2013-03-21 15:32:00,
2013-03-21 11:47:00,25.0,16.0,29.96,NW,317,4.0,-999.0,69,-99.99,,,0.00,weatherlink.com 1.10,2013-03-21 15:47:00,
2013-03-21 12:02:00,25.3,16.0,29.95,WNW,288,6.0,-999.0,68,-99.99,,,0.00,weatherlink.com 1.10,2013-03-21 16:02:00,
2013-03-21 12:17:00,25.6,16.0,29.94,NW,304,5.0,-999.0,68,-99.99,,,0.00,weatherlink.com 1.10,2013-03-21 16:17:00,
2013-03-21 12:32:00,26.1,16.0,29.94,WNW,284,6.0,-999.0,67,-99.99,,,0.00,weatherlink.com 1.10,2013-03-21 16:32:00,
2013-03-21 12:47:00,26.3,17.0,29.94,NW,323,7.0,-999.0,68,-99.99,,,0.00,weatherlink.com 1.10,2013-03-21 16:47:00,
2013-03-21 13:02:00,26.5,16.0,29.94,WNW,289,10.0,-999.0,66,-99.99,,,0.01,weatherlink.com 1.10,2013-03-21 17:02:00,
2013-03-21 13:17:00,27.5,18.0,29.93,WNW,294,5.0,-999.0,67,-99.99,,,0.01,weatherlink.com 1.10,2013-03-21 17:17:00,
2013-03-21 13:32:00,27.7,18.0,29.93,WNW,301,8.0,-999.0,67,-99.99,,,0.01,weatherlink.com 1.10,2013-03-21 17:32:00,
2013-03-21 13:47:00,28.5,18.0,29.94,WNW,298,5.0,-999.0,66,-99.99,,,0.01,weatherlink.com 1.10,2013-03-21 17:47:00,
2013-03-21 14:02:00,28.5,18.0,29.94,WNW,303,9.0,-999.0,65,-99.99,,,0.01,weatherlink.com 1.10,2013-03-21 18:02:00,
2013-03-21 14:17:00,28.4,18.0,29.94,West,274,6.0,-999.0,66,-99.99,,,0.01,weatherlink.com 1.10,2013-03-21 18:17:00,
2013-03-21 14:32:00,28.6,18.0,29.93,NNW,329,6.0,-999.0,65,-99.99,,,0.01,weatherlink.com 1.10,2013-03-21 18:32:00,
2013-03-21 15:02:00,29.5,19.0,29.94,WNW,288,8.0,-999.0,65,-99.99,,,0.01,weatherlink.com 1.10,2013-03-21 19:02:00,
2013-03-21 15:17:00,29.3,20.0,29.94,WNW,302,5.0,-999.0,67,-99.99,,,0.01,weatherlink.com 1.10,2013-03-21 19:17:00,
2013-03-21 15:32:00,28.7,19.0,29.93,WNW,294,10.0,-999.0,68,-99.99,,,0.01,weatherlink.com 1.10,2013-03-21 19:32:00,
2013-03-21 15:47:00,29.5,20.0,29.93,NNW,327,7.0,-999.0,69,-99.99,,,0.01,weatherlink.com 1.10,2013-03-21 19:47:00,
2013-03-21 16:02:00,29.2,20.0,29.94,NW,307,7.0,-999.0,69,-99.99,,,0.01,weatherlink.com 1.10,2013-03-21 20:02:00,
2013-03-21 16:17:00,28.0,19.0,29.94,WNW,288,9.0,-999.0,70,-99.99,,,0.01,weatherlink.com 1.10,2013-03-21 20:17:00,
2013-03-21 16:34:00,29.0,20.0,29.94,NW,308,9.0,-999.0,70,-99.99,,,0.01,weatherlink.com 1.10,2013-03-21 20:34:00,
2013-03-21 16:47:00,28.5,20.0,29.94,West,279,11.0,-999.0,70,-99.99,,,0.01,weatherlink.com 1.10,2013-03-21 20:47:00,
2013-03-21 17:02:00,28.5,20.0,29.94,NW,315,9.0,-999.0,71,-99.99,,,0.01,weatherlink.com 1.10,2013-03-21 21:02:00,
2013-03-21 17:17:00,27.3,20.0,29.95,West,277,9.0,-999.0,73,-99.99,,,0.01,weatherlink.com 1.10,2013-03-21 21:17:00,
2013-03-21 17:32:00,27.0,20.0,29.96,WSW,257,9.0,-999.0,74,-99.99,,,0.01,weatherlink.com 1.10,2013-03-21 21:32:00,
2013-03-21 17:47:00,26.6,20.0,29.96,West,261,11.0,-999.0,76,-99.99,,,0.01,weatherlink.com 1.10,2013-03-21 21:47:00,
2013-03-21 18:02:00,26.6,20.0,29.96,NW,314,10.0,-999.0,76,-99.99,,,0.01,weatherlink.com 1.10,2013-03-21 22:02:00,
2013-03-21 18:17:00,26.9,20.0,29.96,NW,310,11.0,-999.0,76,-99.99,,,0.01,weatherlink.com 1.10,2013-03-21 22:17:00,
2013-03-21 18:32:00,26.7,20.0,29.96,West,278,6.0,-999.0,75,-99.99,,,0.01,weatherlink.com 1.10,2013-03-21 22:32:00,
2013-03-21 18:47:00,26.1,20.0,29.97,NW,317,13.0,-999.0,76,-99.99,,,0.01,weatherlink.com 1.10,2013-03-21 22:47:00,
2013-03-21 19:02:00,26.2,20.0,29.96,WNW,289,7.0,-999.0,76,-99.99,,,0.01,weatherlink.com 1.10,2013-03-21 23:02:00,
2013-03-21 19:17:00,25.8,19.0,29.97,NW,310,9.0,-999.0,75,-99.99,,,0.01,weatherlink.com 1.10,2013-03-21 23:17:00,
2013-03-21 19:32:00,25.5,19.0,29.97,WNW,288,5.0,-999.0,75,-99.99,,,0.01,weatherlink.com 1.10,2013-03-21 23:32:00,
2013-03-21 19:48:00,24.9,18.0,29.98,WNW,300,10.0,-999.0,76,-99.99,,,0.01,weatherlink.com 1.10,2013-03-21 23:48:00,
2013-03-21 20:02:00,24.7,18.0,29.98,WNW,299,16.0,-999.0,77,-99.99,,,0.01,weatherlink.com 1.10,2013-03-22 00:02:00,
2013-03-21 20:17:00,24.7,19.0,29.98,WNW,296,8.0,-999.0,78,-99.99,,,0.01,weatherlink.com 1.10,2013-03-22 00:17:00,
2013-03-21 20:33:00,24.7,19.0,29.98,NNW,333,6.0,-999.0,78,-99.99,,,0.01,weatherlink.com 1.10,2013-03-22 00:33:00,
2013-03-21 20:48:00,24.6,19.0,29.98,NNW,337,4.0,-999.0,79,-99.99,,,0.01,weatherlink.com 1.10,2013-03-22 00:48:00,
2013-03-21 21:03:00,24.5,19.0,29.98,NW,315,5.0,-999.0,79,-99.99,,,0.01,weatherlink.com 1.10,2013-03-22 01:03:00,
2013-03-21 21:18:00,24.9,19.0,29.98,NW,321,7.0,-999.0,79,-99.99,,,0.01,weatherlink.com 1.10,2013-03-22 01:18:00,
2013-03-21 21:33:00,24.9,19.0,29.98,NW,311,6.0,-999.0,79,-99.99,,,0.01,weatherlink.com 1.10,2013-03-22 01:33:00,
2013-03-21 21:48:00,24.6,19.0,29.99,NW,305,10.0,-999.0,80,-99.99,,,0.01,weatherlink.com 1.10,2013-03-22 01:48:00,
2013-03-21 22:03:00,24.9,20.0,29.99,NNW,348,3.0,-999.0,80,-99.99,,,0.01,weatherlink.com 1.10,2013-03-22 02:03:00,
2013-03-21 22:18:00,24.9,20.0,29.98,NW,311,5.0,-999.0,80,-99.99,,,0.01,weatherlink.com 1.10,2013-03-22 02:18:00,
2013-03-21 22:33:00,24.5,19.0,29.98,NNW,342,2.0,-999.0,80,-99.99,,,0.01,weatherlink.com 1.10,2013-03-22 02:33:00,
2013-03-21 22:48:00,24.0,19.0,29.98,NW,307,7.0,-999.0,82,-99.99,,,0.01,weatherlink.com 1.10,2013-03-22 02:48:00,
2013-03-21 23:03:00,23.2,18.0,29.98,NNW,342,3.0,-999.0,81,-99.99,,,0.01,weatherlink.com 1.10,2013-03-22 03:03:00,
2013-03-21 23:18:00,23.1,18.0,29.98,NNW,338,4.0,-999.0,82,-99.99,,,0.01,weatherlink.com 1.10,2013-03-22 03:18:00,
2013-03-21 23:33:00,21.8,17.0,29.98,NNW,340,2.0,-999.0,83,-99.99,,,0.01,weatherlink.com 1.10,2013-03-22 03:33:00,
2013-03-21 23:48:00,23.7,20.0,29.97,NNW,333,3.0,-999.0,84,-99.99,,,0.01,weatherlink.com 1.10,2013-03-22 03:48:00,